This is the latest recevied weather packets stored in our database for station/object MAKIL. If no packets are shown the sender has not sent any weather packets the latest 1 day(s).
| Time | Temp. | Humidity | Pressure | Rain* | Wind** | Luminosity | Snow |
|---|---|---|---|---|---|---|---|
| 1836274170 | 15.56° C | 92% | - | - | 9.39 m/s, 208° | - | - |
| 1778034440 | 3.33° C | 83% | - | - | 4.47 m/s, 264° | - | - |
| 1778033240 | 3.33° C | 80% | - | - | 4.92 m/s, 271° | - | - |
| 1778032040 | 3.33° C | 81% | - | - | 4.92 m/s, 267° | - | - |
| 1778030840 | 3.33° C | 81% | - | - | 4.92 m/s, 271° | - | - |
| 1778029640 | 3.33° C | 84% | - | - | 4.47 m/s, 279° | - | - |
| 1778028440 | 3.33° C | 82% | - | - | 4.92 m/s, 288° | - | - |
| 1778026040 | 3.33° C | 78% | - | - | 6.71 m/s, 294° | - | - |
| 1778024840 | 3.33° C | 76% | - | - | 7.15 m/s, 295° | - | - |
| 1778023640 | 3.89° C | 79% | - | - | 6.71 m/s, 292° | - | - |
| 1778022440 | 3.89° C | 78% | - | - | 7.15 m/s, 289° | - | - |
| 1778021239 | 3.89° C | 76% | - | - | 8.05 m/s, 289° | - | - |
| 1778020039 | 4.44° C | 76% | - | - | 8.05 m/s, 292° | - | - |
| 1778018839 | 4.44° C | 75% | - | - | 8.94 m/s, 288° | - | - |
| 1778017640 | 4.44° C | 75% | - | - | 8.94 m/s, 284° | - | - |
| 1778016439 | 4.44° C | 73% | - | - | 8.94 m/s, 281° | - | - |
| 1778015239 | 4.44° C | 72% | - | - | 8.94 m/s, 280° | - | - |
| 1778014039 | 5° C | 72% | - | - | 8.49 m/s, 281° | - | - |
| 1778012839 | 5° C | 68% | - | - | 9.83 m/s, 278° | - | - |
| 1778011639 | 5° C | 68% | - | - | 10.28 m/s, 279° | - | - |
| 1778010439 | 5.56° C | 66% | - | - | 11.62 m/s, 281° | - | - |
| 1778009239 | 5.56° C | 67% | - | - | 10.28 m/s, 280° | - | - |
| 1778008039 | 5° C | 86% | - | - | 10.73 m/s, 257° | - | - |
| 1778006838 | 5° C | 83% | - | - | 11.62 m/s, 256° | - | - |
| 1778005639 | 5° C | 82% | - | - | 12.07 m/s, 256° | - | - |
* Rain since midnight (hover to see other rain measurements)
** Current wind speed in m/s (hover to see current wind gust speed)